Terminal Aerodrome Forecast
Issued by NWS

Home | Current Version | Previous Version | Text Only | Print | Product List | Glossary Off
Versions: 1 2 3 4 5 6 7 8 9 10 11 12 13 14

783
FTUS43 KBIS 030142 AAA
TAFDIK
TAF AMD
KDIK 030142Z 0302/0324 05010KT P6SM SKC
     FM030500 19005KT P6SM FEW250
     FM031100 28007KT P6SM FEW250
     FM031700 34009KT P6SM FEW250=

USA.gov is the U.S. government's official web portal to all federal, state and local government web resources and services.